Schedule Details


Flight Number: CTN477
Departure: Charles-de-gaulle (LFPG) at 12:05
Arrival: Cilipi (LDDU) at 14:20
Route: LANVI UN491 BEGAR UQ341 RESIA Q333 BABAG N606 PEVAL UN606 SPL UL607 NERRA

Weather Information
LFPG 251830Z 05007KT CAVOK 29/10 Q1018 NOSIG
LDDU 251830Z 03017KT 330V080 CAVOK 30/12 Q1015 NOSIG
Schedule Frequency

Route Map